Date,TemperatureHighF,TemperatureAvgF,TemperatureLowF,DewpointHighF,DewpointAvgF,DewpointLowF,HumidityHigh,HumidityAvg,HumidityLow,PressureMaxIn,PressureMinIn,WindSpeedMaxMPH,WindSpeedAvgMPH,GustSpeedMaxMPH,PrecipitationSumIn
2013-8-4,69.0,64.1,58.8,52.0,51.1,49.8,78,64,51,29.71,29.71,4,1,6,0.00
2013-8-5,67.5,59.5,54.0,58.1,53.3,48.0,88,80,64,29.69,29.56,4,1,8,0.04
2013-8-6,69.3,57.8,47.2,52.2,46.8,-99.9,88,69,50,29.80,29.65,5,2,8,0.00
2013-8-7,71.1,59.5,45.3,55.9,49.2,41.3,88,71,50,29.86,29.74,4,1,6,0.04
2013-8-8,72.9,61.5,50.2,59.5,52.7,46.5,91,74,53,29.86,29.74,4,1,9,0.00
2013-8-9,71.1,60.8,53.2,56.9,50.3,-99.9,89,70,51,29.92,29.68,6,2,9,0.00
2013-8-10,65.7,58.2,49.7,51.7,47.0,-99.9,80,68,53,29.92,29.77,6,2,11,0.00
2013-8-11,66.6,57.9,50.2,52.6,48.2,45.1,88,71,50,29.77,29.68,6,2,11,0.00
2013-8-12,69.1,58.8,50.4,52.8,47.6,42.7,85,68,47,29.80,29.62,5,2,10,0.00
2013-8-13,68.3,59.2,48.9,49.0,45.6,42.7,81,62,46,29.95,29.80,5,2,6,0.00
2013-8-14,72.5,62.3,52.9,57.2,51.9,45.9,83,70,52,29.92,29.74,7,2,16,0.00
2013-8-15,71.5,64.0,59.2,64.7,58.9,-99.9,91,85,72,29.74,29.56,6,2,10,0.17
2013-8-16,71.5,62.6,52.5,59.2,53.2,47.0,93,73,51,29.68,29.56,6,2,10,0.04
2013-8-17,71.4,61.4,51.0,61.9,53.6,45.6,86,76,62,29.68,29.24,11,3,18,0.04
2013-8-18,66.3,57.6,50.9,52.4,48.3,43.6,89,72,52,29.62,29.30,7,3,14,0.00
2013-8-19,68.9,58.6,50.3,52.5,48.4,44.5,84,70,50,29.95,29.61,8,3,15,0.00
2013-8-20,68.4,59.1,50.9,55.4,51.8,46.4,88,78,60,30.03,29.92,5,2,9,0.05
2013-8-21,74.3,63.9,56.7,63.3,56.3,-99.9,91,78,59,29.92,29.83,6,2,11,0.00
2013-8-22,67.6,60.3,55.4,61.5,56.5,52.7,92,87,80,29.92,29.80,3,1,5,0.00
2013-8-23,71.6,61.3,48.2,64.4,56.4,46.3,95,85,68,29.80,29.68,7,1,13,0.00
2013-8-24,67.0,60.6,56.1,59.5,55.8,53.4,93,85,70,29.77,29.68,3,0,5,0.00
2013-8-25,72.0,61.5,54.3,61.8,56.0,50.9,91,82,70,29.98,29.77,3,1,7,0.00
2013-8-26,74.1,62.7,51.8,63.3,56.9,49.0,94,82,66,29.98,29.92,3,1,6,0.00
2013-8-27,74.0,61.0,51.3,60.1,54.0,47.4,91,79,58,30.03,29.86,4,1,6,0.00
2013-8-28,72.0,59.8,50.8,58.4,51.4,-99.9,88,75,54,30.03,29.89,8,2,11,0.00
2013-8-29,67.9,60.0,50.3,58.8,53.0,42.6,86,78,66,29.89,29.80,6,2,11,0.00
2013-8-30,71.4,60.8,50.3,59.7,53.3,40.9,88,76,65,29.86,29.65,7,3,12,0.00
2013-8-31,64.8,55.1,47.4,46.4,41.8,37.1,79,62,41,30.07,29.86,6,3,11,0.00
2013-9-1,60.7,56.8,52.8,53.2,48.0,43.9,83,73,63,30.07,29.89,10,5,17,0.00
2013-9-2,70.0,63.5,58.1,59.3,56.9,53.1,87,79,68,30.03,29.86,8,4,13,0.00
2013-9-3,76.3,64.5,52.7,60.4,54.9,45.7,91,73,46,30.07,30.01,6,3,12,0.00
2013-9-4,73.6,60.0,48.6,54.5,47.0,-99.9,90,65,44,30.01,29.74,7,2,14,0.00
2013-9-5,66.4,57.8,48.6,51.4,44.6,35.5,82,63,44,29.74,29.68,4,1,7,0.00
2013-9-6,58.0,51.2,47.7,47.0,42.3,-99.9,89,75,63,29.71,29.62,8,2,12,0.57
2013-9-7,61.5,53.1,44.2,52.4,47.5,39.8,94,82,66,29.71,29.50,10,3,13,0.79
2013-9-8,63.8,51.1,39.5,50.5,43.3,-99.9,91,77,60,29.74,29.68,6,1,9,0.00
2013-9-9,66.4,53.0,43.6,52.0,46.6,39.7,90,80,54,29.92,29.71,7,1,8,0.00
2013-9-10,64.5,55.7,44.4,48.7,46.3,40.6,90,72,54,30.01,29.92,5,1,10,0.00
2013-9-11,61.6,56.0,49.6,55.6,51.0,44.4,90,83,75,29.98,29.83,3,1,5,0.05
2013-9-12,70.5,60.0,52.0,58.1,54.4,49.4,94,83,56,29.86,29.68,6,2,11,0.00
2013-9-13,57.0,52.7,48.1,52.2,48.5,45.4,91,86,77,29.86,29.74,3,1,6,0.08
2013-9-14,64.8,52.2,43.6,47.8,44.2,41.1,94,76,49,29.89,29.74,4,1,5,0.00
2013-9-15,60.5,51.7,42.8,57.7,45.1,37.3,91,78,56,29.74,29.00,10,4,18,0.25
2013-9-16,56.7,47.8,39.3,44.5,40.2,35.3,87,75,62,29.15,29.03,7,4,15,0.00
2013-9-17,59.2,49.6,40.2,45.4,41.1,35.3,84,73,56,29.21,29.06,6,3,13,0.00
2013-9-18,58.8,48.4,39.4,46.4,40.3,35.0,92,75,55,29.53,29.18,6,3,10,0.00
2013-9-19,58.5,49.3,43.3,53.9,45.4,-99.9,93,88,82,29.56,29.30,4,1,6,0.24
2013-9-20,62.9,52.9,42.3,51.7,46.6,40.4,95,80,58,29.83,29.56,8,2,13,0.05
2013-9-21,63.7,57.5,49.1,57.4,52.2,45.1,89,83,77,29.89,29.80,6,3,11,0.00
2013-9-22,70.7,62.6,54.3,58.8,55.5,49.4,90,78,59,30.09,29.89,7,3,15,0.00
2013-9-23,66.2,57.8,48.0,59.5,53.6,45.8,95,86,78,30.07,29.92,5,1,6,0.00
2013-9-24,61.0,58.2,56.7,57.7,55.7,54.4,93,91,88,29.92,29.74,3,0,5,0.00
2013-9-25,56.7,52.2,39.4,54.7,50.3,37.8,95,93,88,29.83,29.68,69,1,7,0.00
2013-9-26,62.1,48.3,35.1,52.6,43.8,34.0,98,85,65,29.92,29.80,19,1,115,0.00
2013-9-27,61.3,55.7,51.8,56.5,52.4,48.7,94,89,82,29.86,29.71,3,0,4,0.00
2013-9-28,66.8,55.1,45.9,58.3,50.3,44.5,96,85,62,29.74,29.65,5,1,7,0.00
2013-9-29,64.2,52.4,42.4,52.4,46.1,40.0,94,80,61,29.77,29.68,9,2,13,0.00
2013-9-30,61.7,51.3,41.7,51.6,45.7,39.2,94,82,64,29.73,29.62,6,2,11,0.00
2013-10-1,61.7,51.6,41.4,50.8,45.4,38.7,93,80,62,29.68,29.65,9,2,13,0.00
2013-10-2,59.9,56.1,53.1,54.5,50.9,46.6,92,83,77,29.65,29.56,10,4,17,0.00
2013-10-3,68.9,60.0,56.7,62.5,56.1,-99.9,94,88,78,29.56,29.33,9,3,11,0.04
2013-10-4,64.8,58.8,53.5,62.2,55.5,-99.9,95,90,82,29.59,29.33,4,1,6,0.08
2013-10-5,62.7,55.4,50.9,53.4,50.5,47.1,94,84,68,29.89,29.59,5,2,10,0.00
2013-10-6,64.0,58.4,52.9,58.6,54.2,49.8,94,86,80,29.89,29.80,6,2,10,0.00
2013-10-7,67.0,60.3,53.6,59.1,56.0,51.3,95,86,72,29.86,29.77,8,2,13,0.04
2013-10-8,62.2,57.0,51.6,56.9,51.7,44.4,93,83,73,29.92,29.77,7,3,14,0.00
2013-10-9,53.7,49.6,44.4,46.3,39.8,31.5,89,70,51,29.95,29.68,6,3,13,0.09
2013-10-10,53.2,46.4,41.2,37.5,33.9,30.8,74,62,52,30.18,29.95,7,2,14,0.00
2013-10-11,53.7,49.2,46.4,43.3,39.8,35.3,74,70,65,30.27,30.15,5,3,10,0.00
2013-10-12,54.9,50.7,45.5,47.6,43.9,40.4,88,78,70,30.27,30.07,5,2,9,0.00
2013-10-13,55.0,49.0,40.0,49.4,45.7,36.7,94,88,76,30.07,29.80,6,2,9,0.03
2013-10-14,58.5,49.0,40.6,50.9,44.6,39.2,96,86,65,29.80,29.71,5,1,10,0.00
2013-10-15,52.2,47.7,37.1,49.6,45.6,35.5,95,92,88,29.80,29.65,3,1,6,0.00
2013-10-16,54.0,44.4,34.9,50.4,42.1,-99.9,97,93,85,29.74,29.33,6,1,10,0.63
2013-10-17,53.0,48.9,44.7,51.3,47.7,43.3,97,96,94,29.80,29.42,3,0,4,0.41
2013-10-18,54.0,50.1,45.5,52.6,48.5,44.4,97,94,89,29.80,29.50,7,2,13,0.09
2013-10-19,59.0,53.2,48.0,57.3,51.2,-99.9,97,94,92,29.50,29.24,7,1,10,0.28
2013-10-20,61.4,50.7,44.5,57.2,48.0,-99.9,98,93,84,29.30,29.21,6,1,8,0.05
2013-10-21,56.3,51.1,44.6,53.5,49.0,-99.9,97,94,89,29.30,29.09,6,1,7,0.08
2013-10-22,60.3,55.7,52.9,57.4,53.5,-99.9,97,93,85,29.09,28.94,6,1,11,0.33
2013-10-23,56.4,51.2,44.0,53.5,47.2,38.3,97,87,66,29.36,28.80,7,2,13,0.04
2013-10-24,56.1,47.1,40.4,47.6,42.8,36.8,92,85,71,29.68,29.36,5,1,9,0.00
2013-10-25,59.9,51.0,41.0,56.3,48.6,38.9,95,92,82,29.62,29.09,7,2,11,0.09
2013-10-26,55.9,51.9,44.4,52.4,48.1,40.6,95,87,74,29.21,28.94,8,2,15,0.00
2013-10-27,55.3,48.5,40.3,48.4,44.8,37.4,95,87,73,28.97,28.65,11,3,19,0.24
2013-10-28,53.7,47.5,42.3,47.2,43.5,39.6,92,86,74,29.09,28.65,7,2,15,0.04
2013-10-29,53.0,45.3,39.4,43.1,39.5,35.0,87,80,68,29.66,29.09,7,3,11,0.00
2013-10-30,53.7,45.5,37.2,49.2,41.9,34.0,94,87,76,29.68,29.36,9,2,15,0.05
2013-10-31,55.7,45.5,37.8,47.2,40.9,35.8,94,85,69,29.56,29.39,10,3,19,0.12
2013-11-1,50.9,43.7,36.7,42.6,38.1,33.3,91,81,70,29.44,29.33,9,3,15,0.04
2013-11-2,46.3,38.6,29.8,44.1,36.5,27.8,95,92,89,29.36,28.65,10,2,16,0.21
2013-11-3,48.9,42.3,32.5,39.6,35.9,28.7,91,78,61,29.09,28.71,10,4,17,0.04
2013-11-4,48.3,35.7,27.9,39.0,31.1,25.3,95,84,66,29.18,28.97,4,1,6,0.00
2013-11-5,44.2,34.7,26.2,40.0,31.9,23.4,95,89,84,29.15,28.94,5,1,9,0.04
2013-11-6,46.2,40.6,36.5,42.1,37.8,34.3,93,89,83,29.18,28.97,6,2,11,0.04
2013-11-7,48.2,42.2,36.3,40.6,37.3,33.5,92,83,70,29.30,29.15,11,4,17,0.05
2013-11-8,50.1,41.4,34.9,43.2,36.9,-99.9,93,85,76,29.36,29.21,8,-3,13,0.00
2013-11-9,44.3,34.7,28.0,39.6,31.8,-99.9,97,91,83,29.42,29.24,5,1,9,0.00
2013-11-10,44.8,32.8,26.2,39.7,30.5,24.8,98,91,79,29.89,29.44,8,1,11,0.04
2013-11-11,55.2,46.7,39.4,53.2,43.4,36.2,96,88,79,29.80,29.53,9,3,13,0.00
2013-11-12,49.1,42.9,38.2,44.2,39.3,35.6,93,87,73,30.12,29.77,6,3,11,0.08
2013-11-13,49.8,44.6,39.0,43.2,40.1,36.6,94,84,70,30.12,29.56,11,4,18,0.00
2013-11-14,47.9,41.8,33.8,41.9,32.9,-99.9,86,72,56,30.18,29.56,10,3,18,0.00
2013-11-15,49.8,45.7,35.1,46.8,41.8,29.8,91,86,80,30.16,30.07,9,4,15,0.00
2013-11-16,53.2,49.8,42.4,48.7,45.2,38.5,90,84,78,30.12,29.98,11,5,18,0.00
2013-11-17,46.7,39.7,30.5,42.4,37.1,28.3,95,90,82,30.09,29.68,4,0,6,0.04
2013-11-18,46.8,38.3,30.4,43.6,35.4,27.6,97,89,77,29.68,29.50,5,2,9,0.00
2013-11-19,39.3,33.1,24.1,36.2,28.1,21.8,93,82,66,29.74,29.42,12,3,17,0.04
2013-11-20,43.8,39.9,35.3,40.2,34.1,-99.9,92,81,71,29.56,29.12,9,4,15,0.17
2013-11-21,41.0,35.6,27.1,31.4,28.0,22.4,87,74,66,29.92,29.58,6,1,12,0.00
2013-11-22,39.3,29.2,22.5,32.6,25.1,19.5,91,85,75,30.03,29.89,4,0,5,0.00
2013-11-23,46.0,36.2,27.0,39.5,32.1,24.3,90,85,74,30.15,30.03,3,1,4,0.00
2013-11-24,42.4,32.9,25.9,40.2,30.8,23.6,96,92,87,30.42,30.15,1,0,3,0.00
2013-11-25,39.4,31.0,23.5,37.9,29.4,21.8,97,94,91,30.45,30.33,3,0,4,0.00
2013-11-26,50.5,44.4,31.3,48.2,42.8,29.8,98,94,90,30.44,30.21,10,4,17,0.08
2013-11-27,52.7,48.6,41.2,48.5,45.6,39.9,96,89,83,30.27,30.18,7,4,13,0.00
2013-11-28,45.7,41.4,37.4,43.5,39.8,36.4,97,94,90,30.30,30.09,9,2,12,0.00
2013-11-29,46.9,42.8,37.4,45.0,37.3,30.5,94,81,72,30.09,29.80,15,5,23,0.04
2013-11-30,45.7,38.5,28.3,42.6,34.4,25.2,92,85,75,30.09,29.98,14,3,25,0.00
2013-12-1,49.3,40.4,31.6,46.3,38.3,30.1,96,92,87,30.30,30.07,9,2,14,0.00
2013-12-2,45.5,38.9,29.8,44.4,37.2,28.4,98,93,86,30.27,30.03,9,2,13,0.00
2013-12-3,50.2,46.8,40.0,45.9,43.5,38.1,93,88,84,30.03,29.83,9,5,15,0.09
2013-12-4,42.6,38.1,31.8,99.9,35.1,30.0,95,88,66,29.98,29.80,11,4,15,0.04
2013-12-5,46.0,37.9,30.6,44.4,34.8,25.8,95,88,78,29.86,29.15,24,7,38,0.49
2013-12-6,37.8,33.1,29.1,29.7,26.4,23.0,86,76,69,30.07,29.83,4,1,8,0.00
2013-12-7,47.7,40.8,32.9,45.4,38.5,29.7,97,91,86,30.01,29.68,10,3,17,0.05
2013-12-8,53.6,50.6,47.1,51.0,47.9,43.6,93,91,86,29.71,29.59,13,8,19,0.00
2013-12-9,53.2,50.5,45.9,50.5,47.0,41.8,94,88,79,29.95,29.71,12,5,17,0.00
2013-12-10,52.1,49.6,47.5,99.9,44.9,41.7,86,83,76,29.95,29.89,10,4,14,0.00
2013-12-11,51.9,46.4,36.7,47.9,42.2,-99.9,92,86,71,29.98,29.75,11,3,16,0.00
2013-12-12,56.1,52.1,45.8,51.3,47.2,36.6,92,84,60,29.74,29.62,10,4,15,0.04
2013-12-13,57.7,51.2,41.2,51.6,46.6,34.9,91,84,77,29.68,29.44,10,4,14,0.04
2013-12-14,51.9,45.0,35.8,48.7,39.3,-99.9,93,83,73,29.62,29.24,16,7,34,0.08
2013-12-15,49.9,44.2,37.2,47.3,39.7,33.3,96,84,70,29.56,29.30,17,6,28,0.29
2013-12-16,48.3,41.4,37.8,45.5,36.9,33.1,90,84,78,29.74,29.30,13,6,16,0.09
2013-12-17,44.1,39.3,35.5,37.5,34.0,31.0,87,81,73,29.80,29.56,12,6,16,0.00
2013-12-18,51.7,46.1,39.4,47.4,41.0,32.1,91,82,71,29.56,28.56,21,8,30,0.08
2013-12-19,43.8,37.5,34.3,34.4,30.9,27.7,89,77,68,29.27,28.62,16,8,28,0.08
2013-12-20,50.4,42.9,35.8,47.7,38.2,-99.9,93,84,75,29.44,29.12,15,8,24,0.29
2013-12-21,50.0,43.5,37.0,45.4,38.1,34.1,91,81,74,29.24,29.06,19,7,25,0.37
2013-12-22,41.2,37.6,34.9,34.8,32.7,30.0,90,82,74,29.30,29.00,14,9,19,0.17
2013-12-23,48.7,39.7,30.7,45.9,36.0,27.6,96,86,79,29.27,28.15,22,6,26,0.25
2013-12-24,47.6,36.6,37.0,44.7,21.8,-99.9,90,68,58,28.24,28.06,18,11,32,0.08
2013-12-25,44.2,38.3,35.5,34.7,26.1,-99.9,82,70,66,28.85,28.26,18,9,24,0.00
2013-12-26,43.4,34.9,28.5,38.5,30.9,24.4,92,85,78,29.03,28.85,6,2,11,0.00
2013-12-27,42.0,39.9,39.7,39.6,35.8,-99.9,94,90,90,28.50,28.26,21,15,30,0.25
2013-12-28,43.4,40.0,38.3,38.5,35.7,-99.9,92,86,79,29.24,28.53,16,9,24,0.00
2013-12-29,45.8,39.8,35.9,40.9,36.4,31.9,94,87,81,29.56,29.26,13,5,19,0.00
2013-12-30,49.9,43.8,35.2,45.8,40.8,33.1,93,89,84,29.36,29.00,12,4,15,0.79
2013-12-31,45.9,40.2,31.8,42.3,36.9,30.3,97,88,83,29.33,29.00,16,4,19,0.00
2014-1-1,46.8,40.6,33.7,45.3,37.8,30.8,95,90,85,29.03,28.47,12,4,17,0.12
2014-1-2,46.6,41.5,35.8,42.3,38.2,33.4,94,88,79,28.91,28.47,13,5,20,0.05